sensor_id;sensor_type;location;lat;lon;timestamp;pressure;altitude;pressure_sealevel;temperature;humidity
77723;BME280;67811;42.656;23.394;2023-08-07T00:02:11;94521.59;;;17.38;69.72
77723;BME280;67811;42.656;23.394;2023-08-07T00:04:36;94518.84;;;17.33;69.93
77723;BME280;67811;42.656;23.394;2023-08-07T00:07:01;94512.16;;;17.36;70.21
77723;BME280;67811;42.656;23.394;2023-08-07T00:09:26;94519.91;;;17.49;69.76
77723;BME280;67811;42.656;23.394;2023-08-07T00:11:52;94523.41;;;17.50;69.39
77723;BME280;67811;42.656;23.394;2023-08-07T00:14:17;94526.09;;;17.50;69.66
77723;BME280;67811;42.656;23.394;2023-08-07T00:16:44;94515.81;;;17.58;69.10
77723;BME280;67811;42.656;23.394;2023-08-07T00:19:10;94530.56;;;17.61;68.90
77723;BME280;67811;42.656;23.394;2023-08-07T00:21:36;94514.53;;;17.78;68.31
77723;BME280;67811;42.656;23.394;2023-08-07T00:24:01;94509.00;;;17.84;67.86
77723;BME280;67811;42.656;23.394;2023-08-07T00:26:26;94509.31;;;17.71;68.47
77723;BME280;67811;42.656;23.394;2023-08-07T00:28:52;94512.88;;;17.60;69.04
77723;BME280;67811;42.656;23.394;2023-08-07T00:31:17;94512.94;;;17.48;69.86
77723;BME280;67811;42.656;23.394;2023-08-07T00:33:42;94513.47;;;17.33;70.44
77723;BME280;67811;42.656;23.394;2023-08-07T00:36:08;94518.47;;;17.42;70.26
77723;BME280;67811;42.656;23.394;2023-08-07T00:38:33;94525.63;;;17.24;70.89
77723;BME280;67811;42.656;23.394;2023-08-07T00:40:58;94530.00;;;17.30;70.73
77723;BME280;67811;42.656;23.394;2023-08-07T00:43:23;94533.75;;;17.29;70.92
77723;BME280;67811;42.656;23.394;2023-08-07T00:45:49;94537.13;;;17.25;70.72
77723;BME280;67811;42.656;23.394;2023-08-07T00:48:16;94533.25;;;17.16;70.69
77723;BME280;67811;42.656;23.394;2023-08-07T00:50:42;94539.75;;;17.20;70.67
77723;BME280;67811;42.656;23.394;2023-08-07T00:53:07;94534.19;;;17.09;71.10
77723;BME280;67811;42.656;23.394;2023-08-07T00:55:34;94549.50;;;17.26;70.18
77723;BME280;67811;42.656;23.394;2023-08-07T00:57:59;94543.81;;;17.22;70.67
77723;BME280;67811;42.656;23.394;2023-08-07T01:00:26;94549.59;;;17.31;70.19
77723;BME280;67811;42.656;23.394;2023-08-07T01:02:55;94555.50;;;17.33;69.90
77723;BME280;67811;42.656;23.394;2023-08-07T01:05:21;94562.44;;;17.17;70.85
77723;BME280;67811;42.656;23.394;2023-08-07T01:07:47;94563.97;;;17.13;71.00
77723;BME280;67811;42.656;23.394;2023-08-07T01:10:13;94562.44;;;17.17;70.67
77723;BME280;67811;42.656;23.394;2023-08-07T01:12:50;94580.16;;;17.06;71.09
77723;BME280;67811;42.656;23.394;2023-08-07T01:15:22;94569.09;;;17.03;71.56
77723;BME280;67811;42.656;23.394;2023-08-07T01:17:52;94577.28;;;16.96;71.03
77723;BME280;67811;42.656;23.394;2023-08-07T01:20:18;94579.63;;;16.81;72.06
77723;BME280;67811;42.656;23.394;2023-08-07T01:22:44;94571.59;;;16.81;71.48
77723;BME280;67811;42.656;23.394;2023-08-07T01:25:09;94579.97;;;16.84;71.24
77723;BME280;67811;42.656;23.394;2023-08-07T01:27:50;94575.44;;;16.85;71.21
77723;BME280;67811;42.656;23.394;2023-08-07T01:30:27;94568.13;;;16.80;71.33
77723;BME280;67811;42.656;23.394;2023-08-07T01:35:33;94563.69;;;16.63;72.20
77723;BME280;67811;42.656;23.394;2023-08-07T01:38:00;94567.69;;;16.48;72.60
77723;BME280;67811;42.656;23.394;2023-08-07T01:40:27;94564.66;;;16.56;72.42
77723;BME280;67811;42.656;23.394;2023-08-07T01:42:53;94559.44;;;16.38;73.33
77723;BME280;67811;42.656;23.394;2023-08-07T01:45:26;94563.16;;;16.49;72.94
77723;BME280;67811;42.656;23.394;2023-08-07T01:47:52;94561.03;;;16.51;72.83
77723;BME280;67811;42.656;23.394;2023-08-07T01:50:19;94570.56;;;16.58;72.90
77723;BME280;67811;42.656;23.394;2023-08-07T01:52:44;94559.97;;;16.64;72.42
77723;BME280;67811;42.656;23.394;2023-08-07T01:55:09;94570.09;;;16.62;72.54
77723;BME280;67811;42.656;23.394;2023-08-07T01:57:34;94565.56;;;16.74;72.03
77723;BME280;67811;42.656;23.394;2023-08-07T02:00:00;94578.50;;;16.77;72.02
77723;BME280;67811;42.656;23.394;2023-08-07T02:02:25;94582.56;;;16.79;71.45
77723;BME280;67811;42.656;23.394;2023-08-07T02:04:50;94578.69;;;16.64;72.31
77723;BME280;67811;42.656;23.394;2023-08-07T02:07:16;94584.78;;;16.82;71.76
77723;BME280;67811;42.656;23.394;2023-08-07T02:09:41;94585.22;;;16.68;72.33
77723;BME280;67811;42.656;23.394;2023-08-07T02:12:06;94587.69;;;16.46;72.87
77723;BME280;67811;42.656;23.394;2023-08-07T02:14:32;94584.53;;;16.49;73.37
77723;BME280;67811;42.656;23.394;2023-08-07T02:16:57;94586.16;;;16.62;73.14
77723;BME280;67811;42.656;23.394;2023-08-07T02:19:22;94590.81;;;16.54;73.20
77723;BME280;67811;42.656;23.394;2023-08-07T02:21:47;94599.16;;;16.70;72.78
77723;BME280;67811;42.656;23.394;2023-08-07T02:24:13;94603.03;;;16.74;72.23
77723;BME280;67811;42.656;23.394;2023-08-07T02:26:38;94602.69;;;16.70;72.11
77723;BME280;67811;42.656;23.394;2023-08-07T02:29:03;94601.78;;;16.76;72.62
77723;BME280;67811;42.656;23.394;2023-08-07T02:31:29;94610.81;;;16.87;72.17
77723;BME280;67811;42.656;23.394;2023-08-07T02:33:54;94603.38;;;16.89;72.03
77723;BME280;67811;42.656;23.394;2023-08-07T02:36:19;94605.91;;;16.96;71.96
77723;BME280;67811;42.656;23.394;2023-08-07T02:38:44;94599.75;;;16.95;72.07
77723;BME280;67811;42.656;23.394;2023-08-07T02:41:10;94596.72;;;16.92;71.91
77723;BME280;67811;42.656;23.394;2023-08-07T02:43:36;94598.81;;;16.90;72.24
77723;BME280;67811;42.656;23.394;2023-08-07T02:46:01;94602.88;;;16.69;73.14
77723;BME280;67811;42.656;23.394;2023-08-07T02:48:27;94609.78;;;16.76;73.22
77723;BME280;67811;42.656;23.394;2023-08-07T02:50:52;94608.97;;;16.76;72.88
77723;BME280;67811;42.656;23.394;2023-08-07T02:53:17;94614.09;;;16.77;72.90
77723;BME280;67811;42.656;23.394;2023-08-07T02:55:45;94610.69;;;16.70;72.88
77723;BME280;67811;42.656;23.394;2023-08-07T02:58:11;94615.09;;;16.65;73.58
77723;BME280;67811;42.656;23.394;2023-08-07T03:00:36;94614.06;;;16.66;73.31
77723;BME280;67811;42.656;23.394;2023-08-07T03:03:01;94622.44;;;16.69;73.24
77723;BME280;67811;42.656;23.394;2023-08-07T03:05:26;94621.28;;;16.65;73.37
77723;BME280;67811;42.656;23.394;2023-08-07T03:07:52;94625.22;;;16.63;73.83
77723;BME280;67811;42.656;23.394;2023-08-07T03:10:17;94624.06;;;16.47;74.04
77723;BME280;67811;42.656;23.394;2023-08-07T03:12:42;94627.66;;;16.41;74.38
77723;BME280;67811;42.656;23.394;2023-08-07T03:15:08;94628.84;;;16.45;73.88
77723;BME280;67811;42.656;23.394;2023-08-07T03:17:33;94628.47;;;16.65;72.22
77723;BME280;67811;42.656;23.394;2023-08-07T03:19:58;94636.53;;;17.40;70.26
77723;BME280;67811;42.656;23.394;2023-08-07T03:22:24;94633.00;;;18.08;68.68
77723;BME280;67811;42.656;23.394;2023-08-07T03:24:49;94633.38;;;17.72;66.35
77723;BME280;67811;42.656;23.394;2023-08-07T03:27:15;94640.84;;;16.89;70.99
77723;BME280;67811;42.656;23.394;2023-08-07T03:29:40;94652.47;;;16.95;70.02
77723;BME280;67811;42.656;23.394;2023-08-07T03:32:05;94645.63;;;17.96;69.81
77723;BME280;67811;42.656;23.394;2023-08-07T03:34:31;94638.72;;;20.16;62.08
77723;BME280;67811;42.656;23.394;2023-08-07T03:36:56;94643.56;;;19.65;59.34
77723;BME280;67811;42.656;23.394;2023-08-07T03:39:22;94645.06;;;19.78;61.09
77723;BME280;67811;42.656;23.394;2023-08-07T03:41:47;94645.94;;;20.74;58.32
77723;BME280;67811;42.656;23.394;2023-08-07T03:44:12;94654.25;;;21.63;54.53
77723;BME280;67811;42.656;23.394;2023-08-07T03:46:37;94647.72;;;22.31;52.49
77723;BME280;67811;42.656;23.394;2023-08-07T03:49:03;94650.94;;;22.84;50.76
77723;BME280;67811;42.656;23.394;2023-08-07T03:51:28;94651.75;;;22.85;50.35
77723;BME280;67811;42.656;23.394;2023-08-07T03:53:53;94661.50;;;22.66;50.74
77723;BME280;67811;42.656;23.394;2023-08-07T03:56:18;94657.97;;;22.50;51.32
77723;BME280;67811;42.656;23.394;2023-08-07T03:58:44;94658.78;;;23.06;49.89
77723;BME280;67811;42.656;23.394;2023-08-07T04:01:09;94657.59;;;23.48;48.38
77723;BME280;67811;42.656;23.394;2023-08-07T04:03:34;94673.22;;;23.72;47.74
77723;BME280;67811;42.656;23.394;2023-08-07T04:06:00;94665.69;;;23.53;48.34
77723;BME280;67811;42.656;23.394;2023-08-07T04:08:25;94679.19;;;23.58;47.75
77723;BME280;67811;42.656;23.394;2023-08-07T04:11:04;94687.72;;;22.96;49.16
77723;BME280;67811;42.656;23.394;2023-08-07T04:13:30;94686.31;;;23.24;48.66
77723;BME280;67811;42.656;23.394;2023-08-07T04:15:56;94685.16;;;23.50;47.96
77723;BME280;67811;42.656;23.394;2023-08-07T04:18:21;94689.97;;;23.79;47.14
77723;BME280;67811;42.656;23.394;2023-08-07T04:20:51;94687.44;;;22.77;49.21
77723;BME280;67811;42.656;23.394;2023-08-07T04:23:17;94696.28;;;22.16;50.15
77723;BME280;67811;42.656;23.394;2023-08-07T04:25:42;94700.19;;;21.78;51.54
77723;BME280;67811;42.656;23.394;2023-08-07T04:28:07;94688.50;;;20.72;52.72
77723;BME280;67811;42.656;23.394;2023-08-07T04:30:32;94703.22;;;20.65;54.83
77723;BME280;67811;42.656;23.394;2023-08-07T04:32:58;94692.97;;;20.94;53.55
77723;BME280;67811;42.656;23.394;2023-08-07T04:35:23;94701.50;;;21.75;51.91
77723;BME280;67811;42.656;23.394;2023-08-07T04:37:48;94708.97;;;22.36;51.69
77723;BME280;67811;42.656;23.394;2023-08-07T04:40:13;94702.53;;;22.62;49.68
77723;BME280;67811;42.656;23.394;2023-08-07T04:42:39;94689.84;;;22.43;51.04
77723;BME280;67811;42.656;23.394;2023-08-07T04:45:04;94693.91;;;22.81;49.36
77723;BME280;67811;42.656;23.394;2023-08-07T04:47:30;94703.91;;;22.80;48.40
77723;BME280;67811;42.656;23.394;2023-08-07T04:49:55;94708.94;;;21.53;51.52
77723;BME280;67811;42.656;23.394;2023-08-07T04:52:20;94705.31;;;21.84;51.38
77723;BME280;67811;42.656;23.394;2023-08-07T04:54:45;94696.84;;;22.33;49.14
77723;BME280;67811;42.656;23.394;2023-08-07T04:57:11;94695.94;;;22.07;49.72
77723;BME280;67811;42.656;23.394;2023-08-07T04:59:36;94695.50;;;22.31;57.02
77723;BME280;67811;42.656;23.394;2023-08-07T05:02:01;94693.09;;;22.50;55.72
77723;BME280;67811;42.656;23.394;2023-08-07T05:04:27;94698.09;;;22.05;53.40
77723;BME280;67811;42.656;23.394;2023-08-07T05:06:52;94702.38;;;21.96;50.52
77723;BME280;67811;42.656;23.394;2023-08-07T05:09:17;94697.09;;;22.22;49.65
77723;BME280;67811;42.656;23.394;2023-08-07T05:11:43;94688.56;;;21.77;51.22
77723;BME280;67811;42.656;23.394;2023-08-07T05:14:08;94690.69;;;21.18;54.88
77723;BME280;67811;42.656;23.394;2023-08-07T05:16:33;94698.13;;;21.48;53.02
77723;BME280;67811;42.656;23.394;2023-08-07T05:18:58;94692.75;;;21.43;51.12
77723;BME280;67811;42.656;23.394;2023-08-07T05:21:24;94686.56;;;21.05;52.16
77723;BME280;67811;42.656;23.394;2023-08-07T05:23:49;94686.44;;;21.27;51.58
77723;BME280;67811;42.656;23.394;2023-08-07T05:26:16;94681.78;;;21.70;52.00
77723;BME280;67811;42.656;23.394;2023-08-07T05:28:41;94683.00;;;22.09;50.08
77723;BME280;67811;42.656;23.394;2023-08-07T05:31:06;94689.75;;;21.39;50.04
77723;BME280;67811;42.656;23.394;2023-08-07T05:33:32;94695.84;;;21.72;50.61
77723;BME280;67811;42.656;23.394;2023-08-07T05:35:57;94697.47;;;21.78;49.49
77723;BME280;67811;42.656;23.394;2023-08-07T05:38:23;94695.09;;;21.92;49.17
77723;BME280;67811;42.656;23.394;2023-08-07T05:40:48;94690.06;;;21.53;49.69
77723;BME280;67811;42.656;23.394;2023-08-07T05:43:13;94682.09;;;21.21;51.87
77723;BME280;67811;42.656;23.394;2023-08-07T05:45:38;94683.59;;;21.44;50.50
77723;BME280;67811;42.656;23.394;2023-08-07T05:48:04;94685.47;;;21.43;50.22
77723;BME280;67811;42.656;23.394;2023-08-07T05:50:29;94685.28;;;21.18;50.28
77723;BME280;67811;42.656;23.394;2023-08-07T05:52:54;94694.50;;;21.27;50.63
77723;BME280;67811;42.656;23.394;2023-08-07T05:55:20;94695.03;;;21.71;49.50
77723;BME280;67811;42.656;23.394;2023-08-07T05:57:45;94688.63;;;21.88;49.30
77723;BME280;67811;42.656;23.394;2023-08-07T06:00:11;94683.09;;;22.45;48.01
77723;BME280;67811;42.656;23.394;2023-08-07T06:02:36;94690.09;;;22.26;47.86
77723;BME280;67811;42.656;23.394;2023-08-07T06:05:01;94686.56;;;22.30;47.46
77723;BME280;67811;42.656;23.394;2023-08-07T06:07:26;94683.09;;;22.96;47.46
77723;BME280;67811;42.656;23.394;2023-08-07T06:09:52;94687.16;;;22.68;45.45
77723;BME280;67811;42.656;23.394;2023-08-07T06:12:17;94688.22;;;22.62;46.80
77723;BME280;67811;42.656;23.394;2023-08-07T06:14:42;94680.44;;;22.91;44.49
77723;BME280;67811;42.656;23.394;2023-08-07T06:17:07;94682.56;;;23.09;45.27
77723;BME280;67811;42.656;23.394;2023-08-07T06:19:33;94672.31;;;22.96;45.40
77723;BME280;67811;42.656;23.394;2023-08-07T06:21:58;94673.38;;;23.10;45.91
77723;BME280;67811;42.656;23.394;2023-08-07T06:24:24;94671.22;;;22.56;45.59
77723;BME280;67811;42.656;23.394;2023-08-07T06:26:49;94679.59;;;22.91;45.39
77723;BME280;67811;42.656;23.394;2023-08-07T06:29:14;94672.84;;;23.03;44.41
77723;BME280;67811;42.656;23.394;2023-08-07T06:31:40;94663.94;;;23.08;43.89
77723;BME280;67811;42.656;23.394;2023-08-07T06:34:05;94660.50;;;23.72;43.38
77723;BME280;67811;42.656;23.394;2023-08-07T06:36:30;94668.53;;;23.92;42.69
77723;BME280;67811;42.656;23.394;2023-08-07T06:38:55;94667.81;;;24.21;41.06
77723;BME280;67811;42.656;23.394;2023-08-07T06:41:21;94663.63;;;24.00;41.06
77723;BME280;67811;42.656;23.394;2023-08-07T06:43:46;94664.66;;;24.09;40.74
77723;BME280;67811;42.656;23.394;2023-08-07T06:46:11;94669.38;;;23.83;40.29
77723;BME280;67811;42.656;23.394;2023-08-07T06:48:37;94674.59;;;23.74;41.66
77723;BME280;67811;42.656;23.394;2023-08-07T06:51:02;94678.13;;;24.19;38.65
77723;BME280;67811;42.656;23.394;2023-08-07T06:53:27;94670.50;;;23.77;37.33
77723;BME280;67811;42.656;23.394;2023-08-07T06:55:52;94681.34;;;23.72;38.52
77723;BME280;67811;42.656;23.394;2023-08-07T06:58:18;94685.56;;;23.93;38.27
77723;BME280;67811;42.656;23.394;2023-08-07T07:00:43;94687.66;;;23.36;38.76
77723;BME280;67811;42.656;23.394;2023-08-07T07:03:08;94679.75;;;23.65;39.14
77723;BME280;67811;42.656;23.394;2023-08-07T07:05:34;94676.91;;;24.46;37.82
77723;BME280;67811;42.656;23.394;2023-08-07T07:07:59;94688.59;;;23.86;37.18
77723;BME280;67811;42.656;23.394;2023-08-07T07:10:24;94675.97;;;24.16;37.98
77723;BME280;67811;42.656;23.394;2023-08-07T07:12:50;94668.50;;;24.81;37.22
77723;BME280;67811;42.656;23.394;2023-08-07T07:15:15;94665.78;;;25.15;36.48
77723;BME280;67811;42.656;23.394;2023-08-07T07:17:40;94669.63;;;25.38;35.26
77723;BME280;67811;42.656;23.394;2023-08-07T07:20:06;94665.97;;;24.95;35.69
77723;BME280;67811;42.656;23.394;2023-08-07T07:22:31;94669.03;;;25.41;35.80
77723;BME280;67811;42.656;23.394;2023-08-07T07:24:57;94668.97;;;25.70;35.51
77723;BME280;67811;42.656;23.394;2023-08-07T07:27:22;94676.41;;;26.08;34.59
77723;BME280;67811;42.656;23.394;2023-08-07T07:29:48;94661.41;;;26.15;34.43
77723;BME280;67811;42.656;23.394;2023-08-07T07:32:14;94671.34;;;26.44;34.53
77723;BME280;67811;42.656;23.394;2023-08-07T07:34:39;94671.41;;;25.96;34.27
77723;BME280;67811;42.656;23.394;2023-08-07T07:37:05;94673.75;;;26.02;34.36
77723;BME280;67811;42.656;23.394;2023-08-07T07:39:30;94670.84;;;25.99;34.27
77723;BME280;67811;42.656;23.394;2023-08-07T07:41:55;94668.50;;;26.11;34.35
77723;BME280;67811;42.656;23.394;2023-08-07T07:44:21;94674.88;;;26.01;34.89
77723;BME280;67811;42.656;23.394;2023-08-07T07:46:46;94671.88;;;26.78;34.00
77723;BME280;67811;42.656;23.394;2023-08-07T07:49:11;94674.00;;;27.61;32.52
77723;BME280;67811;42.656;23.394;2023-08-07T07:51:36;94673.63;;;27.81;32.13
77723;BME280;67811;42.656;23.394;2023-08-07T07:54:02;94666.13;;;28.00;31.80
77723;BME280;67811;42.656;23.394;2023-08-07T07:56:27;94663.00;;;27.79;31.31
77723;BME280;67811;42.656;23.394;2023-08-07T07:58:52;94668.75;;;27.04;34.63
77723;BME280;67811;42.656;23.394;2023-08-07T08:01:18;94665.63;;;27.43;32.12
77723;BME280;67811;42.656;23.394;2023-08-07T08:03:43;94663.81;;;27.94;32.41
77723;BME280;67811;42.656;23.394;2023-08-07T08:06:11;94657.25;;;28.08;31.94
77723;BME280;67811;42.656;23.394;2023-08-07T08:08:36;94658.53;;;28.39;31.33
77723;BME280;67811;42.656;23.394;2023-08-07T08:11:02;94650.88;;;28.85;29.27
77723;BME280;67811;42.656;23.394;2023-08-07T08:13:27;94658.41;;;29.02;30.06
77723;BME280;67811;42.656;23.394;2023-08-07T08:15:52;94664.97;;;28.43;29.76
77723;BME280;67811;42.656;23.394;2023-08-07T08:18:17;94661.78;;;27.58;30.75
77723;BME280;67811;42.656;23.394;2023-08-07T08:20:43;94657.59;;;28.29;30.21
77723;BME280;67811;42.656;23.394;2023-08-07T08:23:08;94657.84;;;28.55;30.32
77723;BME280;67811;42.656;23.394;2023-08-07T08:25:33;94663.94;;;28.52;29.77
77723;BME280;67811;42.656;23.394;2023-08-07T08:27:59;94653.28;;;28.87;30.40
77723;BME280;67811;42.656;23.394;2023-08-07T08:30:24;94646.47;;;29.21;28.58
77723;BME280;67811;42.656;23.394;2023-08-07T08:32:49;94644.66;;;29.16;28.31
77723;BME280;67811;42.656;23.394;2023-08-07T08:35:15;94647.44;;;29.25;27.96
77723;BME280;67811;42.656;23.394;2023-08-07T08:37:40;94648.16;;;29.08;28.03
77723;BME280;67811;42.656;23.394;2023-08-07T08:40:06;94638.88;;;29.40;28.31
77723;BME280;67811;42.656;23.394;2023-08-07T08:42:33;94642.69;;;29.61;28.09
77723;BME280;67811;42.656;23.394;2023-08-07T08:44:59;94633.06;;;29.73;27.99
77723;BME280;67811;42.656;23.394;2023-08-07T08:47:26;94635.81;;;29.73;27.81
77723;BME280;67811;42.656;23.394;2023-08-07T08:50:01;94635.16;;;29.67;28.01
77723;BME280;67811;42.656;23.394;2023-08-07T08:52:28;94639.47;;;29.68;28.44
77723;BME280;67811;42.656;23.394;2023-08-07T08:54:55;94645.84;;;30.03;27.29
77723;BME280;67811;42.656;23.394;2023-08-07T08:57:21;94638.63;;;29.59;27.09
77723;BME280;67811;42.656;23.394;2023-08-07T08:59:47;94632.00;;;29.91;26.97
77723;BME280;67811;42.656;23.394;2023-08-07T09:02:13;94626.97;;;28.10;28.35
77723;BME280;67811;42.656;23.394;2023-08-07T09:04:38;94614.72;;;29.33;28.07
77723;BME280;67811;42.656;23.394;2023-08-07T09:07:04;94620.78;;;30.01;27.33
77723;BME280;67811;42.656;23.394;2023-08-07T09:09:29;94618.09;;;29.61;27.26
77723;BME280;67811;42.656;23.394;2023-08-07T09:11:57;94616.25;;;29.97;27.10
77723;BME280;67811;42.656;23.394;2023-08-07T09:14:26;94614.75;;;30.82;25.72
77723;BME280;67811;42.656;23.394;2023-08-07T09:16:53;94619.84;;;30.49;26.18
77723;BME280;67811;42.656;23.394;2023-08-07T09:19:19;94614.16;;;29.93;27.07
77723;BME280;67811;42.656;23.394;2023-08-07T09:21:44;94609.16;;;29.87;26.70
77723;BME280;67811;42.656;23.394;2023-08-07T09:24:09;94608.69;;;29.85;26.01
77723;BME280;67811;42.656;23.394;2023-08-07T09:26:35;94609.44;;;29.77;26.88
77723;BME280;67811;42.656;23.394;2023-08-07T09:29:01;94601.66;;;30.01;26.58
77723;BME280;67811;42.656;23.394;2023-08-07T09:31:27;94606.69;;;30.16;26.16
77723;BME280;67811;42.656;23.394;2023-08-07T09:33:52;94608.47;;;30.38;26.14
77723;BME280;67811;42.656;23.394;2023-08-07T09:36:18;94587.03;;;30.92;25.80
77723;BME280;67811;42.656;23.394;2023-08-07T09:38:44;94593.19;;;30.29;26.77
77723;BME280;67811;42.656;23.394;2023-08-07T09:41:17;94591.19;;;29.95;27.60
77723;BME280;67811;42.656;23.394;2023-08-07T09:43:43;94593.25;;;29.80;26.41
77723;BME280;67811;42.656;23.394;2023-08-07T09:46:08;94600.63;;;29.88;27.24
77723;BME280;67811;42.656;23.394;2023-08-07T09:48:43;94594.94;;;30.25;26.46
77723;BME280;67811;42.656;23.394;2023-08-07T09:51:09;94584.16;;;30.63;26.17
77723;BME280;67811;42.656;23.394;2023-08-07T09:53:34;94585.41;;;30.91;26.03
77723;BME280;67811;42.656;23.394;2023-08-07T09:56:00;94578.38;;;30.73;26.04
77723;BME280;67811;42.656;23.394;2023-08-07T09:58:26;94592.66;;;31.05;25.15
77723;BME280;67811;42.656;23.394;2023-08-07T10:00:52;94585.06;;;31.10;24.96
77723;BME280;67811;42.656;23.394;2023-08-07T10:03:17;94587.97;;;31.52;25.14
77723;BME280;67811;42.656;23.394;2023-08-07T10:05:43;94590.78;;;31.73;24.33
77723;BME280;67811;42.656;23.394;2023-08-07T10:08:10;94587.59;;;31.33;25.19
77723;BME280;67811;42.656;23.394;2023-08-07T10:10:36;94595.09;;;30.46;25.31
77723;BME280;67811;42.656;23.394;2023-08-07T10:13:02;94596.72;;;30.29;26.02
77723;BME280;67811;42.656;23.394;2023-08-07T10:15:29;94594.78;;;30.30;25.72
77723;BME280;67811;42.656;23.394;2023-08-07T10:17:56;94586.56;;;30.64;25.45
77723;BME280;67811;42.656;23.394;2023-08-07T10:20:21;94585.19;;;31.22;25.39
77723;BME280;67811;42.656;23.394;2023-08-07T10:22:48;94584.13;;;30.98;25.43
77723;BME280;67811;42.656;23.394;2023-08-07T10:25:14;94583.75;;;31.16;27.23
77723;BME280;67811;42.656;23.394;2023-08-07T10:27:42;94582.75;;;31.68;25.00
77723;BME280;67811;42.656;23.394;2023-08-07T10:30:10;94582.31;;;31.57;25.58
77723;BME280;67811;42.656;23.394;2023-08-07T10:32:37;94586.69;;;31.03;25.89
77723;BME280;67811;42.656;23.394;2023-08-07T10:35:05;94591.47;;;31.32;24.77
77723;BME280;67811;42.656;23.394;2023-08-07T10:37:44;94585.72;;;31.92;23.71
77723;BME280;67811;42.656;23.394;2023-08-07T10:40:11;94574.34;;;31.73;24.45
77723;BME280;67811;42.656;23.394;2023-08-07T10:42:59;94576.50;;;31.59;25.14
77723;BME280;67811;42.656;23.394;2023-08-07T10:45:26;94580.44;;;30.76;26.00
77723;BME280;67811;42.656;23.394;2023-08-07T10:48:08;94567.63;;;31.62;25.67
77723;BME280;67811;42.656;23.394;2023-08-07T10:50:49;94578.97;;;32.52;23.65
77723;BME280;67811;42.656;23.394;2023-08-07T10:53:28;94566.69;;;32.38;24.31
77723;BME280;67811;42.656;23.394;2023-08-07T10:55:54;94569.88;;;31.30;26.13
77723;BME280;67811;42.656;23.394;2023-08-07T10:58:31;94574.53;;;31.30;25.61
77723;BME280;67811;42.656;23.394;2023-08-07T11:01:39;94564.16;;;31.82;25.23
77723;BME280;67811;42.656;23.394;2023-08-07T11:04:14;94570.13;;;31.84;24.73
77723;BME280;67811;42.656;23.394;2023-08-07T11:06:41;94549.13;;;32.30;24.43
77723;BME280;67811;42.656;23.394;2023-08-07T11:09:07;94557.44;;;32.00;24.85
77723;BME280;67811;42.656;23.394;2023-08-07T11:11:39;94542.19;;;31.91;25.19
77723;BME280;67811;42.656;23.394;2023-08-07T11:14:13;94542.50;;;32.52;23.98
77723;BME280;67811;42.656;23.394;2023-08-07T11:16:39;94541.44;;;32.23;24.35
77723;BME280;67811;42.656;23.394;2023-08-07T11:19:05;94539.97;;;31.16;25.74
77723;BME280;67811;42.656;23.394;2023-08-07T11:21:31;94541.94;;;31.45;25.09
77723;BME280;67811;42.656;23.394;2023-08-07T11:23:57;94537.72;;;31.78;24.99
77723;BME280;67811;42.656;23.394;2023-08-07T11:26:22;94534.94;;;30.72;27.04
77723;BME280;67811;42.656;23.394;2023-08-07T11:28:48;94523.06;;;30.15;27.11
77723;BME280;67811;42.656;23.394;2023-08-07T11:31:13;94530.75;;;29.79;27.86
77723;BME280;67811;42.656;23.394;2023-08-07T11:33:39;94526.31;;;30.17;26.55
77723;BME280;67811;42.656;23.394;2023-08-07T11:36:12;94529.00;;;30.26;26.88
77723;BME280;67811;42.656;23.394;2023-08-07T11:38:40;94523.84;;;29.99;27.05
77723;BME280;67811;42.656;23.394;2023-08-07T11:41:06;94523.69;;;30.04;26.81
77723;BME280;67811;42.656;23.394;2023-08-07T11:43:35;94519.69;;;30.44;26.71
77723;BME280;67811;42.656;23.394;2023-08-07T11:46:03;94521.41;;;30.58;25.95
77723;BME280;67811;42.656;23.394;2023-08-07T11:48:30;94530.00;;;30.39;25.76
77723;BME280;67811;42.656;23.394;2023-08-07T11:50:57;94524.81;;;30.37;25.94
77723;BME280;67811;42.656;23.394;2023-08-07T11:53:24;94537.03;;;30.66;25.79
77723;BME280;67811;42.656;23.394;2023-08-07T11:55:56;94532.97;;;30.81;25.54
77723;BME280;67811;42.656;23.394;2023-08-07T11:58:24;94519.38;;;31.10;25.70
77723;BME280;67811;42.656;23.394;2023-08-07T12:00:50;94515.78;;;31.18;25.58
77723;BME280;67811;42.656;23.394;2023-08-07T12:03:29;94518.91;;;31.46;25.28
77723;BME280;67811;42.656;23.394;2023-08-07T12:05:57;94518.94;;;31.00;25.51
77723;BME280;67811;42.656;23.394;2023-08-07T12:08:24;94514.88;;;31.73;25.06
77723;BME280;67811;42.656;23.394;2023-08-07T12:10:51;94515.31;;;31.84;24.72
77723;BME280;67811;42.656;23.394;2023-08-07T12:13:16;94504.56;;;32.21;24.33
77723;BME280;67811;42.656;23.394;2023-08-07T12:15:44;94503.66;;;32.29;24.10
77723;BME280;67811;42.656;23.394;2023-08-07T12:18:10;94504.00;;;32.48;24.49
77723;BME280;67811;42.656;23.394;2023-08-07T12:20:35;94498.56;;;32.61;23.66
77723;BME280;67811;42.656;23.394;2023-08-07T12:23:00;94500.13;;;32.49;24.34
77723;BME280;67811;42.656;23.394;2023-08-07T12:25:26;94491.16;;;32.19;24.20
77723;BME280;67811;42.656;23.394;2023-08-07T12:27:51;94503.34;;;32.10;24.46
77723;BME280;67811;42.656;23.394;2023-08-07T12:30:16;94503.00;;;32.32;24.37
77723;BME280;67811;42.656;23.394;2023-08-07T12:32:41;94501.13;;;32.24;24.15
77723;BME280;67811;42.656;23.394;2023-08-07T12:35:07;94487.41;;;32.24;24.40
77723;BME280;67811;42.656;23.394;2023-08-07T12:37:32;94491.09;;;32.28;24.36
77723;BME280;67811;42.656;23.394;2023-08-07T12:39:57;94490.50;;;32.02;24.84
77723;BME280;67811;42.656;23.394;2023-08-07T12:42:23;94485.31;;;31.88;24.91
77723;BME280;67811;42.656;23.394;2023-08-07T12:44:48;94490.69;;;31.16;26.00
77723;BME280;67811;42.656;23.394;2023-08-07T12:47:13;94489.81;;;30.95;26.27
77723;BME280;67811;42.656;23.394;2023-08-07T12:49:38;94501.50;;;30.05;27.40